Lago Vista, Texas
Current Conditions -  °F | °C
As of 12:15 AM on Monday 22 Dec 2014 (Local Time) from KRYW Reporting Station
Overcast Overcast  
Wind Chill: 56°   Ceiling: 1200
Heat Index: 56°   Visibility: 10mi
Dew Point: 51°   Wind: 12mph
Humidity: 85%   Direction: 200°SSW
Pressure: 29.82"   Gusts: 21mph
Location:  30.4521°N, 97.9683°W
Report Text: KRYW 220615Z AUTO 20010G18KT 10SM OVC012 13/11 A2982 RMK AO2 T01320107
Loading
Personal Weather Stations






























Interactive Weather Map New forecast layout! Learn more

10-Day Weather Forecast

Advertisements
Track Severe Weather on mobile